Tinian, Northern Mariana Islands
Current Conditions -  °F | °C
As of 8:55 AM on Saturday 01 Nov 2014 (Local Time) from PGWT Reporting Station
Rain Showers Rain Showers  
Wind Chill: 81°   Ceiling: 10000
Heat Index: 87°   Visibility: 7mi
Dew Point: 77°   Wind: 3mph
Humidity: 89%   Direction: 250°WSW
Pressure: 29.84"   Gusts: NA
Location:  14.96°N, 145.63°E
Report Text: PGWT 312255Z 25003KT 7SM VCSH FEW010 SCT015 BKN100 27/25 A2984 RMK VCSH NE
Loading
Personal Weather Stations






























Interactive Weather Map
Tropical Storm Tracking
New forecast layout! Learn more

10-Day Weather Forecast

Advertisements
Track Severe Weather on mobile